Terminal Aerodrome Forecast
Issued by NWS

Home | Current Version | Previous Version | Text Only | Print | Product List | Glossary On
Versions: 1 2 3 4 5 6 7 8 9 10 11 12 13
000
FTUS46 KLOX 270500
TAFPRB
TAF
KPRB 270520Z 2706/2806 15006KT P6SM VCSH SCT070 BKN110
     FM270700 16005KT P6SM -SHRA BKN070 OVC110
     FM271200 VRB03KT P6SM VCSH BKN070 BKN110
     FM271900 09006KT P6SM SCT070
     FM280100 VRB03KT P6SM SCT200=

USA.gov is the U.S. government's official web portal to all federal, state and local government web resources and services.